sensor_id;sensor_type;location;lat;lon;timestamp;P1;durP1;ratioP1;P2;durP2;ratioP2
5612;SDS011;63463;53.586;9.928;2022-12-07T00:01:14;23.73;;;14.07;;
5612;SDS011;63463;53.586;9.928;2022-12-07T00:03:41;29.00;;;13.43;;
5612;SDS011;63463;53.586;9.928;2022-12-07T00:06:08;32.37;;;15.03;;
5612;SDS011;63463;53.586;9.928;2022-12-07T00:08:35;22.83;;;14.30;;
5612;SDS011;63463;53.586;9.928;2022-12-07T00:11:05;23.27;;;14.40;;
5612;SDS011;63463;53.586;9.928;2022-12-07T00:13:32;28.00;;;14.77;;
5612;SDS011;63463;53.586;9.928;2022-12-07T00:16:03;27.90;;;15.70;;
5612;SDS011;63463;53.586;9.928;2022-12-07T00:18:29;26.20;;;14.40;;
5612;SDS011;63463;53.586;9.928;2022-12-07T00:21:01;27.60;;;15.30;;
5612;SDS011;63463;53.586;9.928;2022-12-07T00:23:27;20.63;;;13.30;;
5612;SDS011;63463;53.586;9.928;2022-12-07T00:25:53;24.33;;;14.00;;
5612;SDS011;63463;53.586;9.928;2022-12-07T00:28:19;21.87;;;12.60;;
5612;SDS011;63463;53.586;9.928;2022-12-07T00:30:45;23.93;;;14.37;;
5612;SDS011;63463;53.586;9.928;2022-12-07T00:33:11;21.50;;;14.00;;
5612;SDS011;63463;53.586;9.928;2022-12-07T00:35:37;27.57;;;14.37;;
5612;SDS011;63463;53.586;9.928;2022-12-07T00:38:03;23.90;;;13.50;;
5612;SDS011;63463;53.586;9.928;2022-12-07T00:40:29;22.97;;;13.57;;
5612;SDS011;63463;53.586;9.928;2022-12-07T00:42:55;31.33;;;13.23;;
5612;SDS011;63463;53.586;9.928;2022-12-07T00:45:21;22.57;;;13.87;;
5612;SDS011;63463;53.586;9.928;2022-12-07T00:47:47;18.87;;;12.77;;
5612;SDS011;63463;53.586;9.928;2022-12-07T00:50:13;21.83;;;13.43;;
5612;SDS011;63463;53.586;9.928;2022-12-07T00:52:39;24.43;;;12.50;;
5612;SDS011;63463;53.586;9.928;2022-12-07T00:55:05;20.40;;;12.70;;
5612;SDS011;63463;53.586;9.928;2022-12-07T00:57:32;21.40;;;12.63;;
5612;SDS011;63463;53.586;9.928;2022-12-07T00:59:58;21.83;;;12.87;;
5612;SDS011;63463;53.586;9.928;2022-12-07T01:02:25;22.60;;;12.43;;
5612;SDS011;63463;53.586;9.928;2022-12-07T01:04:51;18.40;;;11.67;;
5612;SDS011;63463;53.586;9.928;2022-12-07T01:07:17;20.40;;;11.47;;
5612;SDS011;63463;53.586;9.928;2022-12-07T01:09:43;17.90;;;12.30;;
5612;SDS011;63463;53.586;9.928;2022-12-07T01:12:10;18.13;;;10.73;;
5612;SDS011;63463;53.586;9.928;2022-12-07T01:14:36;15.57;;;11.10;;
5612;SDS011;63463;53.586;9.928;2022-12-07T01:17:02;25.80;;;11.60;;
5612;SDS011;63463;53.586;9.928;2022-12-07T01:19:28;17.10;;;11.20;;
5612;SDS011;63463;53.586;9.928;2022-12-07T01:21:54;22.63;;;11.40;;
5612;SDS011;63463;53.586;9.928;2022-12-07T01:24:20;17.27;;;10.70;;
5612;SDS011;63463;53.586;9.928;2022-12-07T01:26:48;16.30;;;10.90;;
5612;SDS011;63463;53.586;9.928;2022-12-07T01:29:14;14.87;;;10.50;;
5612;SDS011;63463;53.586;9.928;2022-12-07T01:31:40;23.23;;;12.07;;
5612;SDS011;63463;53.586;9.928;2022-12-07T01:34:06;17.63;;;11.20;;
5612;SDS011;63463;53.586;9.928;2022-12-07T01:36:34;20.57;;;11.90;;
5612;SDS011;63463;53.586;9.928;2022-12-07T01:39:01;15.30;;;10.63;;
5612;SDS011;63463;53.586;9.928;2022-12-07T01:41:28;26.00;;;11.60;;
5612;SDS011;63463;53.586;9.928;2022-12-07T01:44:08;20.33;;;10.17;;
5612;SDS011;63463;53.586;9.928;2022-12-07T01:46:35;15.13;;;11.00;;
5612;SDS011;63463;53.586;9.928;2022-12-07T01:49:01;19.27;;;11.27;;
5612;SDS011;63463;53.586;9.928;2022-12-07T01:51:29;26.80;;;11.80;;
5612;SDS011;63463;53.586;9.928;2022-12-07T01:53:55;34.17;;;11.30;;
5612;SDS011;63463;53.586;9.928;2022-12-07T01:56:23;17.20;;;10.10;;
5612;SDS011;63463;53.586;9.928;2022-12-07T01:58:50;15.20;;;11.00;;
5612;SDS011;63463;53.586;9.928;2022-12-07T02:01:17;20.17;;;10.90;;
5612;SDS011;63463;53.586;9.928;2022-12-07T02:03:43;16.60;;;10.30;;
5612;SDS011;63463;53.586;9.928;2022-12-07T02:06:10;19.73;;;10.13;;
5612;SDS011;63463;53.586;9.928;2022-12-07T02:08:37;17.10;;;9.90;;
5612;SDS011;63463;53.586;9.928;2022-12-07T02:11:03;13.77;;;9.77;;
5612;SDS011;63463;53.586;9.928;2022-12-07T02:13:32;15.50;;;9.60;;
5612;SDS011;63463;53.586;9.928;2022-12-07T02:21:08;9.60;;;8.20;;
5612;SDS011;63463;53.586;9.928;2022-12-07T02:31:31;18.23;;;9.50;;
5612;SDS011;63463;53.586;9.928;2022-12-07T02:34:00;13.43;;;8.27;;
5612;SDS011;63463;53.586;9.928;2022-12-07T02:36:30;12.10;;;7.83;;
5612;SDS011;63463;53.586;9.928;2022-12-07T02:38:58;8.70;;;7.50;;
5612;SDS011;63463;53.586;9.928;2022-12-07T02:43:58;11.33;;;7.53;;
5612;SDS011;63463;53.586;9.928;2022-12-07T02:46:26;9.57;;;7.60;;
5612;SDS011;63463;53.586;9.928;2022-12-07T02:48:53;7.80;;;7.03;;
5612;SDS011;63463;53.586;9.928;2022-12-07T02:51:21;17.33;;;7.80;;
5612;SDS011;63463;53.586;9.928;2022-12-07T02:53:47;8.13;;;7.33;;
5612;SDS011;63463;53.586;9.928;2022-12-07T02:59:02;7.80;;;6.80;;
5612;SDS011;63463;53.586;9.928;2022-12-07T03:01:37;9.90;;;6.67;;
5612;SDS011;63463;53.586;9.928;2022-12-07T03:04:18;6.70;;;6.20;;
5612;SDS011;63463;53.586;9.928;2022-12-07T03:06:52;7.27;;;6.50;;
5612;SDS011;63463;53.586;9.928;2022-12-07T03:09:27;8.03;;;6.20;;
5612;SDS011;63463;53.586;9.928;2022-12-07T03:11:56;7.57;;;6.77;;
5612;SDS011;63463;53.586;9.928;2022-12-07T03:14:29;7.57;;;6.87;;
5612;SDS011;63463;53.586;9.928;2022-12-07T03:19:23;15.80;;;6.87;;
5612;SDS011;63463;53.586;9.928;2022-12-07T03:21:55;8.27;;;5.90;;
5612;SDS011;63463;53.586;9.928;2022-12-07T03:24:24;8.30;;;5.47;;
5612;SDS011;63463;53.586;9.928;2022-12-07T03:26:52;5.97;;;5.57;;
5612;SDS011;63463;53.586;9.928;2022-12-07T03:29:22;8.93;;;5.43;;
5612;SDS011;63463;53.586;9.928;2022-12-07T03:31:51;5.50;;;5.13;;
5612;SDS011;63463;53.586;9.928;2022-12-07T03:34:21;5.20;;;4.83;;
5612;SDS011;63463;53.586;9.928;2022-12-07T03:36:50;5.50;;;4.97;;
5612;SDS011;63463;53.586;9.928;2022-12-07T03:39:24;5.33;;;5.03;;
5612;SDS011;63463;53.586;9.928;2022-12-07T03:41:52;6.10;;;5.70;;
5612;SDS011;63463;53.586;9.928;2022-12-07T03:44:18;5.40;;;5.20;;
5612;SDS011;63463;53.586;9.928;2022-12-07T03:46:50;5.80;;;5.40;;
5612;SDS011;63463;53.586;9.928;2022-12-07T03:50:00;8.03;;;5.70;;
5612;SDS011;63463;53.586;9.928;2022-12-07T03:55:14;20.33;;;5.13;;
5612;SDS011;63463;53.586;9.928;2022-12-07T03:57:21;5.77;;;5.27;;
5612;SDS011;63463;53.586;9.928;2022-12-07T03:59:48;5.77;;;5.33;;
5612;SDS011;63463;53.586;9.928;2022-12-07T04:02:15;8.93;;;5.50;;
5612;SDS011;63463;53.586;9.928;2022-12-07T04:04:41;5.20;;;5.00;;
5612;SDS011;63463;53.586;9.928;2022-12-07T04:07:07;6.80;;;4.90;;
5612;SDS011;63463;53.586;9.928;2022-12-07T04:09:33;5.33;;;5.03;;
5612;SDS011;63463;53.586;9.928;2022-12-07T04:11:59;6.57;;;5.50;;
5612;SDS011;63463;53.586;9.928;2022-12-07T04:14:25;5.60;;;5.20;;
5612;SDS011;63463;53.586;9.928;2022-12-07T04:16:52;5.47;;;5.07;;
5612;SDS011;63463;53.586;9.928;2022-12-07T04:19:19;6.27;;;5.67;;
5612;SDS011;63463;53.586;9.928;2022-12-07T04:21:46;5.17;;;4.87;;
5612;SDS011;63463;53.586;9.928;2022-12-07T04:24:13;5.73;;;5.37;;
5612;SDS011;63463;53.586;9.928;2022-12-07T04:26:39;5.70;;;5.40;;
5612;SDS011;63463;53.586;9.928;2022-12-07T04:29:05;6.53;;;5.97;;
5612;SDS011;63463;53.586;9.928;2022-12-07T04:31:31;5.70;;;5.40;;
5612;SDS011;63463;53.586;9.928;2022-12-07T04:33:57;13.03;;;6.17;;
5612;SDS011;63463;53.586;9.928;2022-12-07T04:36:23;5.63;;;5.33;;
5612;SDS011;63463;53.586;9.928;2022-12-07T04:38:49;6.50;;;5.90;;
5612;SDS011;63463;53.586;9.928;2022-12-07T04:41:15;5.87;;;5.37;;
5612;SDS011;63463;53.586;9.928;2022-12-07T04:43:42;19.50;;;5.90;;
5612;SDS011;63463;53.586;9.928;2022-12-07T04:46:09;5.80;;;5.50;;
5612;SDS011;63463;53.586;9.928;2022-12-07T04:48:35;9.33;;;6.03;;
5612;SDS011;63463;53.586;9.928;2022-12-07T04:51:02;6.40;;;5.90;;
5612;SDS011;63463;53.586;9.928;2022-12-07T04:53:28;7.00;;;6.00;;
5612;SDS011;63463;53.586;9.928;2022-12-07T04:55:54;10.70;;;6.20;;
5612;SDS011;63463;53.586;9.928;2022-12-07T04:58:20;6.37;;;5.97;;
5612;SDS011;63463;53.586;9.928;2022-12-07T05:00:46;5.70;;;5.40;;
5612;SDS011;63463;53.586;9.928;2022-12-07T05:03:12;6.47;;;6.07;;
5612;SDS011;63463;53.586;9.928;2022-12-07T05:05:40;6.67;;;6.10;;
5612;SDS011;63463;53.586;9.928;2022-12-07T05:08:06;6.07;;;5.60;;
5612;SDS011;63463;53.586;9.928;2022-12-07T05:10:32;7.23;;;6.30;;
5612;SDS011;63463;53.586;9.928;2022-12-07T05:12:58;6.47;;;5.50;;
5612;SDS011;63463;53.586;9.928;2022-12-07T05:15:24;6.43;;;6.00;;
5612;SDS011;63463;53.586;9.928;2022-12-07T05:17:50;6.20;;;5.60;;
5612;SDS011;63463;53.586;9.928;2022-12-07T05:20:17;6.40;;;5.90;;
5612;SDS011;63463;53.586;9.928;2022-12-07T05:22:43;7.50;;;5.77;;
5612;SDS011;63463;53.586;9.928;2022-12-07T05:25:09;6.10;;;5.77;;
5612;SDS011;63463;53.586;9.928;2022-12-07T05:27:35;7.20;;;6.50;;
5612;SDS011;63463;53.586;9.928;2022-12-07T05:30:01;5.73;;;5.23;;
5612;SDS011;63463;53.586;9.928;2022-12-07T05:32:27;10.57;;;6.30;;
5612;SDS011;63463;53.586;9.928;2022-12-07T05:34:53;7.33;;;6.03;;
5612;SDS011;63463;53.586;9.928;2022-12-07T05:37:19;5.93;;;5.70;;
5612;SDS011;63463;53.586;9.928;2022-12-07T05:39:45;10.03;;;5.83;;
5612;SDS011;63463;53.586;9.928;2022-12-07T05:42:11;6.03;;;5.57;;
5612;SDS011;63463;53.586;9.928;2022-12-07T05:44:38;5.80;;;5.50;;
5612;SDS011;63463;53.586;9.928;2022-12-07T05:47:04;7.17;;;5.70;;
5612;SDS011;63463;53.586;9.928;2022-12-07T05:49:30;6.40;;;5.97;;
5612;SDS011;63463;53.586;9.928;2022-12-07T05:51:56;10.33;;;6.47;;
5612;SDS011;63463;53.586;9.928;2022-12-07T05:54:22;6.63;;;5.90;;
5612;SDS011;63463;53.586;9.928;2022-12-07T05:56:48;6.23;;;5.73;;
5612;SDS011;63463;53.586;9.928;2022-12-07T05:59:14;6.00;;;5.60;;
5612;SDS011;63463;53.586;9.928;2022-12-07T06:01:52;6.90;;;6.30;;
5612;SDS011;63463;53.586;9.928;2022-12-07T06:04:19;6.87;;;6.30;;
5612;SDS011;63463;53.586;9.928;2022-12-07T06:06:45;6.37;;;5.93;;
5612;SDS011;63463;53.586;9.928;2022-12-07T06:09:12;6.33;;;5.83;;
5612;SDS011;63463;53.586;9.928;2022-12-07T06:11:38;8.10;;;6.27;;
5612;SDS011;63463;53.586;9.928;2022-12-07T06:14:23;6.80;;;6.40;;
5612;SDS011;63463;53.586;9.928;2022-12-07T06:16:49;6.20;;;5.70;;
5612;SDS011;63463;53.586;9.928;2022-12-07T06:19:15;6.80;;;6.30;;
5612;SDS011;63463;53.586;9.928;2022-12-07T06:21:41;6.37;;;5.60;;
5612;SDS011;63463;53.586;9.928;2022-12-07T06:24:08;6.27;;;5.93;;
5612;SDS011;63463;53.586;9.928;2022-12-07T06:26:34;6.33;;;5.93;;
5612;SDS011;63463;53.586;9.928;2022-12-07T06:29:00;6.43;;;5.93;;
5612;SDS011;63463;53.586;9.928;2022-12-07T06:31:26;6.47;;;5.90;;
5612;SDS011;63463;53.586;9.928;2022-12-07T06:33:56;6.10;;;5.60;;
5612;SDS011;63463;53.586;9.928;2022-12-07T06:36:22;6.43;;;5.90;;
5612;SDS011;63463;53.586;9.928;2022-12-07T06:38:48;6.10;;;5.70;;
5612;SDS011;63463;53.586;9.928;2022-12-07T06:41:14;6.27;;;5.87;;
5612;SDS011;63463;53.586;9.928;2022-12-07T06:43:40;7.30;;;5.40;;
5612;SDS011;63463;53.586;9.928;2022-12-07T06:46:07;6.73;;;5.70;;
5612;SDS011;63463;53.586;9.928;2022-12-07T06:48:33;5.90;;;5.53;;
5612;SDS011;63463;53.586;9.928;2022-12-07T06:50:59;5.57;;;5.37;;
5612;SDS011;63463;53.586;9.928;2022-12-07T06:53:25;5.90;;;5.40;;
5612;SDS011;63463;53.586;9.928;2022-12-07T06:55:51;8.97;;;5.70;;
5612;SDS011;63463;53.586;9.928;2022-12-07T06:58:17;6.30;;;5.80;;
5612;SDS011;63463;53.586;9.928;2022-12-07T07:00:44;7.50;;;5.70;;
5612;SDS011;63463;53.586;9.928;2022-12-07T07:03:10;6.83;;;5.70;;
5612;SDS011;63463;53.586;9.928;2022-12-07T07:05:36;5.40;;;5.10;;
5612;SDS011;63463;53.586;9.928;2022-12-07T07:08:02;5.77;;;5.47;;
5612;SDS011;63463;53.586;9.928;2022-12-07T07:10:28;5.97;;;5.47;;
5612;SDS011;63463;53.586;9.928;2022-12-07T07:12:54;12.93;;;6.00;;
5612;SDS011;63463;53.586;9.928;2022-12-07T07:15:20;5.60;;;5.23;;
5612;SDS011;63463;53.586;9.928;2022-12-07T07:17:46;5.70;;;5.17;;
5612;SDS011;63463;53.586;9.928;2022-12-07T07:20:12;9.03;;;5.63;;
5612;SDS011;63463;53.586;9.928;2022-12-07T07:22:38;5.30;;;5.10;;
5612;SDS011;63463;53.586;9.928;2022-12-07T07:25:04;5.30;;;5.00;;
5612;SDS011;63463;53.586;9.928;2022-12-07T07:27:30;5.20;;;4.80;;
5612;SDS011;63463;53.586;9.928;2022-12-07T07:29:56;5.43;;;4.93;;
5612;SDS011;63463;53.586;9.928;2022-12-07T07:32:22;5.10;;;4.90;;
5612;SDS011;63463;53.586;9.928;2022-12-07T07:34:48;10.03;;;5.00;;
5612;SDS011;63463;53.586;9.928;2022-12-07T07:37:14;5.13;;;4.77;;
5612;SDS011;63463;53.586;9.928;2022-12-07T07:39:40;6.63;;;4.77;;
5612;SDS011;63463;53.586;9.928;2022-12-07T07:42:06;5.93;;;4.30;;
5612;SDS011;63463;53.586;9.928;2022-12-07T07:44:33;14.30;;;5.60;;
5612;SDS011;63463;53.586;9.928;2022-12-07T07:46:59;5.77;;;5.33;;
5612;SDS011;63463;53.586;9.928;2022-12-07T07:49:25;9.43;;;4.83;;
5612;SDS011;63463;53.586;9.928;2022-12-07T07:51:51;4.87;;;4.63;;
5612;SDS011;63463;53.586;9.928;2022-12-07T07:54:17;4.97;;;4.73;;
5612;SDS011;63463;53.586;9.928;2022-12-07T07:56:43;4.80;;;4.60;;
5612;SDS011;63463;53.586;9.928;2022-12-07T07:59:09;4.63;;;4.33;;
5612;SDS011;63463;53.586;9.928;2022-12-07T08:01:35;5.20;;;4.77;;
5612;SDS011;63463;53.586;9.928;2022-12-07T08:04:01;5.57;;;4.40;;
5612;SDS011;63463;53.586;9.928;2022-12-07T08:06:27;5.37;;;4.50;;
5612;SDS011;63463;53.586;9.928;2022-12-07T08:08:53;4.70;;;4.30;;
5612;SDS011;63463;53.586;9.928;2022-12-07T08:11:19;7.50;;;5.00;;
5612;SDS011;63463;53.586;9.928;2022-12-07T08:13:45;4.83;;;4.53;;
5612;SDS011;63463;53.586;9.928;2022-12-07T08:16:12;5.57;;;5.00;;
5612;SDS011;63463;53.586;9.928;2022-12-07T08:18:40;5.07;;;4.63;;
5612;SDS011;63463;53.586;9.928;2022-12-07T08:21:07;9.43;;;4.50;;
5612;SDS011;63463;53.586;9.928;2022-12-07T08:23:33;7.20;;;4.50;;
5612;SDS011;63463;53.586;9.928;2022-12-07T08:26:06;6.37;;;4.43;;
5612;SDS011;63463;53.586;9.928;2022-12-07T08:28:32;4.53;;;4.33;;
5612;SDS011;63463;53.586;9.928;2022-12-07T08:30:59;5.60;;;5.17;;
5612;SDS011;63463;53.586;9.928;2022-12-07T08:33:25;6.73;;;4.83;;
5612;SDS011;63463;53.586;9.928;2022-12-07T08:35:51;7.60;;;4.63;;
5612;SDS011;63463;53.586;9.928;2022-12-07T08:38:17;6.00;;;4.70;;
5612;SDS011;63463;53.586;9.928;2022-12-07T08:40:43;5.80;;;4.60;;
5612;SDS011;63463;53.586;9.928;2022-12-07T08:43:10;4.87;;;4.53;;
5612;SDS011;63463;53.586;9.928;2022-12-07T08:45:36;5.00;;;4.60;;
5612;SDS011;63463;53.586;9.928;2022-12-07T08:48:09;5.40;;;4.90;;
5612;SDS011;63463;53.586;9.928;2022-12-07T08:50:36;5.60;;;5.20;;
5612;SDS011;63463;53.586;9.928;2022-12-07T08:53:03;4.90;;;4.70;;
5612;SDS011;63463;53.586;9.928;2022-12-07T08:55:29;5.20;;;4.83;;
5612;SDS011;63463;53.586;9.928;2022-12-07T08:57:59;4.80;;;4.43;;
5612;SDS011;63463;53.586;9.928;2022-12-07T09:00:26;4.47;;;4.27;;
5612;SDS011;63463;53.586;9.928;2022-12-07T09:02:52;4.70;;;4.50;;
5612;SDS011;63463;53.586;9.928;2022-12-07T09:05:19;7.80;;;4.90;;
5612;SDS011;63463;53.586;9.928;2022-12-07T09:07:45;9.13;;;4.83;;
5612;SDS011;63463;53.586;9.928;2022-12-07T09:10:14;12.60;;;5.07;;
5612;SDS011;63463;53.586;9.928;2022-12-07T09:12:40;6.77;;;4.53;;
5612;SDS011;63463;53.586;9.928;2022-12-07T09:15:06;5.90;;;4.73;;
5612;SDS011;63463;53.586;9.928;2022-12-07T09:17:33;6.00;;;4.90;;
5612;SDS011;63463;53.586;9.928;2022-12-07T09:20:00;11.13;;;5.13;;
5612;SDS011;63463;53.586;9.928;2022-12-07T09:22:29;11.37;;;4.73;;
5612;SDS011;63463;53.586;9.928;2022-12-07T09:24:56;5.70;;;4.90;;
5612;SDS011;63463;53.586;9.928;2022-12-07T09:27:22;5.13;;;4.73;;
5612;SDS011;63463;53.586;9.928;2022-12-07T09:29:48;5.57;;;5.20;;
5612;SDS011;63463;53.586;9.928;2022-12-07T09:32:14;7.03;;;4.80;;
5612;SDS011;63463;53.586;9.928;2022-12-07T09:34:40;8.33;;;5.07;;
5612;SDS011;63463;53.586;9.928;2022-12-07T09:37:07;10.57;;;5.20;;
5612;SDS011;63463;53.586;9.928;2022-12-07T09:39:33;6.93;;;4.73;;
5612;SDS011;63463;53.586;9.928;2022-12-07T09:41:59;7.13;;;4.63;;
5612;SDS011;63463;53.586;9.928;2022-12-07T09:44:25;5.47;;;4.80;;
5612;SDS011;63463;53.586;9.928;2022-12-07T09:46:52;5.53;;;4.43;;
5612;SDS011;63463;53.586;9.928;2022-12-07T09:49:20;8.33;;;4.80;;
5612;SDS011;63463;53.586;9.928;2022-12-07T09:51:47;5.90;;;5.00;;
5612;SDS011;63463;53.586;9.928;2022-12-07T09:54:16;14.03;;;5.03;;
5612;SDS011;63463;53.586;9.928;2022-12-07T09:56:43;6.50;;;4.10;;
5612;SDS011;63463;53.586;9.928;2022-12-07T09:59:12;16.30;;;4.63;;
5612;SDS011;63463;53.586;9.928;2022-12-07T10:01:39;4.50;;;4.10;;
5612;SDS011;63463;53.586;9.928;2022-12-07T10:06:40;8.63;;;4.70;;
5612;SDS011;63463;53.586;9.928;2022-12-07T10:09:10;4.93;;;4.63;;
5612;SDS011;63463;53.586;9.928;2022-12-07T10:11:57;5.00;;;4.60;;
5612;SDS011;63463;53.586;9.928;2022-12-07T10:14:22;17.00;;;5.07;;
5612;SDS011;63463;53.586;9.928;2022-12-07T10:16:48;4.70;;;4.40;;
5612;SDS011;63463;53.586;9.928;2022-12-07T10:19:31;4.60;;;4.50;;
5612;SDS011;63463;53.586;9.928;2022-12-07T10:24:27;7.23;;;4.30;;
5612;SDS011;63463;53.586;9.928;2022-12-07T10:26:53;6.07;;;4.80;;
5612;SDS011;63463;53.586;9.928;2022-12-07T10:31:58;6.40;;;4.10;;
5612;SDS011;63463;53.586;9.928;2022-12-07T10:34:29;5.93;;;4.00;;
5612;SDS011;63463;53.586;9.928;2022-12-07T10:39:52;13.03;;;4.50;;
5612;SDS011;63463;53.586;9.928;2022-12-07T10:42:22;4.53;;;4.20;;
5612;SDS011;63463;53.586;9.928;2022-12-07T10:44:49;6.80;;;4.53;;
5612;SDS011;63463;53.586;9.928;2022-12-07T10:47:25;4.30;;;4.10;;
5612;SDS011;63463;53.586;9.928;2022-12-07T10:52:38;4.77;;;4.47;;
5612;SDS011;63463;53.586;9.928;2022-12-07T11:00:19;4.40;;;4.00;;
5612;SDS011;63463;53.586;9.928;2022-12-07T11:05:39;4.77;;;4.37;;
5612;SDS011;63463;53.586;9.928;2022-12-07T11:11:09;4.30;;;4.03;;
5612;SDS011;63463;53.586;9.928;2022-12-07T11:16:24;8.93;;;4.10;;
5612;SDS011;63463;53.586;9.928;2022-12-07T11:21:24;4.20;;;3.93;;
5612;SDS011;63463;53.586;9.928;2022-12-07T11:23:55;5.10;;;4.07;;
5612;SDS011;63463;53.586;9.928;2022-12-07T11:34:29;5.37;;;4.47;;
5612;SDS011;63463;53.586;9.928;2022-12-07T11:36:59;8.30;;;4.50;;
5612;SDS011;63463;53.586;9.928;2022-12-07T11:39:33;6.43;;;4.17;;
5612;SDS011;63463;53.586;9.928;2022-12-07T11:42:03;7.10;;;4.40;;
5612;SDS011;63463;53.586;9.928;2022-12-07T11:44:46;4.63;;;4.23;;
5612;SDS011;63463;53.586;9.928;2022-12-07T11:47:16;6.20;;;4.50;;
5612;SDS011;63463;53.586;9.928;2022-12-07T11:52:13;5.07;;;4.60;;
5612;SDS011;63463;53.586;9.928;2022-12-07T11:54:42;12.53;;;5.27;;
5612;SDS011;63463;53.586;9.928;2022-12-07T11:57:11;6.10;;;4.60;;
5612;SDS011;63463;53.586;9.928;2022-12-07T11:59:40;4.93;;;4.60;;
5612;SDS011;63463;53.586;9.928;2022-12-07T12:02:24;4.87;;;4.50;;
5612;SDS011;63463;53.586;9.928;2022-12-07T12:07:22;4.63;;;4.23;;
5612;SDS011;63463;53.586;9.928;2022-12-07T12:10:03;9.03;;;4.40;;
5612;SDS011;63463;53.586;9.928;2022-12-07T12:15:21;7.57;;;4.53;;
5612;SDS011;63463;53.586;9.928;2022-12-07T12:23:22;16.07;;;5.30;;
5612;SDS011;63463;53.586;9.928;2022-12-07T12:25:49;4.70;;;4.40;;
5612;SDS011;63463;53.586;9.928;2022-12-07T12:31:04;9.93;;;4.90;;
5612;SDS011;63463;53.586;9.928;2022-12-07T12:33:30;13.50;;;4.57;;
5612;SDS011;63463;53.586;9.928;2022-12-07T12:43:58;10.80;;;4.00;;
5612;SDS011;63463;53.586;9.928;2022-12-07T12:51:47;5.60;;;4.30;;
5612;SDS011;63463;53.586;9.928;2022-12-07T12:54:23;6.00;;;4.40;;
5612;SDS011;63463;53.586;9.928;2022-12-07T12:59:24;8.37;;;4.67;;
5612;SDS011;63463;53.586;9.928;2022-12-07T13:01:53;6.10;;;5.30;;
5612;SDS011;63463;53.586;9.928;2022-12-07T13:04:24;9.00;;;4.57;;
5612;SDS011;63463;53.586;9.928;2022-12-07T13:06:50;8.33;;;4.63;;
5612;SDS011;63463;53.586;9.928;2022-12-07T13:09:24;6.07;;;3.87;;
5612;SDS011;63463;53.586;9.928;2022-12-07T13:12:01;5.00;;;4.37;;
5612;SDS011;63463;53.586;9.928;2022-12-07T13:17:05;4.90;;;4.50;;
5612;SDS011;63463;53.586;9.928;2022-12-07T13:24:57;4.73;;;4.47;;
5612;SDS011;63463;53.586;9.928;2022-12-07T13:27:26;4.87;;;4.37;;
5612;SDS011;63463;53.586;9.928;2022-12-07T13:29:54;5.00;;;4.40;;
5612;SDS011;63463;53.586;9.928;2022-12-07T13:32:25;4.40;;;4.10;;
5612;SDS011;63463;53.586;9.928;2022-12-07T13:34:54;10.30;;;4.50;;
5612;SDS011;63463;53.586;9.928;2022-12-07T13:39:53;4.60;;;4.20;;
5612;SDS011;63463;53.586;9.928;2022-12-07T13:42:30;4.40;;;4.20;;
5612;SDS011;63463;53.586;9.928;2022-12-07T13:44:56;5.00;;;4.70;;
5612;SDS011;63463;53.586;9.928;2022-12-07T13:49:52;5.67;;;4.53;;
5612;SDS011;63463;53.586;9.928;2022-12-07T13:52:25;4.70;;;4.20;;
5612;SDS011;63463;53.586;9.928;2022-12-07T13:57:35;4.40;;;4.10;;
5612;SDS011;63463;53.586;9.928;2022-12-07T14:00:05;11.40;;;4.50;;
5612;SDS011;63463;53.586;9.928;2022-12-07T14:02:33;4.23;;;4.03;;
5612;SDS011;63463;53.586;9.928;2022-12-07T14:10:53;10.03;;;4.70;;
5612;SDS011;63463;53.586;9.928;2022-12-07T14:15:54;9.20;;;4.50;;
5612;SDS011;63463;53.586;9.928;2022-12-07T14:18:40;9.90;;;5.00;;
5612;SDS011;63463;53.586;9.928;2022-12-07T14:21:14;4.80;;;4.40;;
5612;SDS011;63463;53.586;9.928;2022-12-07T14:23:41;4.20;;;4.10;;
5612;SDS011;63463;53.586;9.928;2022-12-07T14:26:09;5.37;;;4.03;;
5612;SDS011;63463;53.586;9.928;2022-12-07T14:28:36;9.90;;;4.57;;
5612;SDS011;63463;53.586;9.928;2022-12-07T14:31:03;11.33;;;4.90;;
5612;SDS011;63463;53.586;9.928;2022-12-07T14:33:29;5.00;;;4.60;;
5612;SDS011;63463;53.586;9.928;2022-12-07T14:35:55;9.40;;;4.50;;
5612;SDS011;63463;53.586;9.928;2022-12-07T14:38:23;8.73;;;4.40;;
5612;SDS011;63463;53.586;9.928;2022-12-07T14:40:50;6.13;;;4.20;;
5612;SDS011;63463;53.586;9.928;2022-12-07T14:43:18;12.63;;;4.53;;
5612;SDS011;63463;53.586;9.928;2022-12-07T14:45:44;12.20;;;4.30;;
5612;SDS011;63463;53.586;9.928;2022-12-07T14:48:10;4.37;;;4.10;;
5612;SDS011;63463;53.586;9.928;2022-12-07T14:50:38;4.73;;;4.37;;
5612;SDS011;63463;53.586;9.928;2022-12-07T14:53:12;4.57;;;4.30;;
5612;SDS011;63463;53.586;9.928;2022-12-07T14:55:39;8.70;;;4.70;;
5612;SDS011;63463;53.586;9.928;2022-12-07T14:58:05;12.70;;;4.70;;
5612;SDS011;63463;53.586;9.928;2022-12-07T15:00:31;5.57;;;4.50;;
5612;SDS011;63463;53.586;9.928;2022-12-07T15:02:59;9.47;;;4.50;;
5612;SDS011;63463;53.586;9.928;2022-12-07T15:05:25;4.80;;;4.50;;
5612;SDS011;63463;53.586;9.928;2022-12-07T15:07:51;8.40;;;4.30;;
5612;SDS011;63463;53.586;9.928;2022-12-07T15:10:22;4.43;;;4.30;;
5612;SDS011;63463;53.586;9.928;2022-12-07T15:12:48;6.13;;;4.53;;
5612;SDS011;63463;53.586;9.928;2022-12-07T15:15:14;7.53;;;4.47;;
5612;SDS011;63463;53.586;9.928;2022-12-07T15:17:42;6.27;;;4.97;;
5612;SDS011;63463;53.586;9.928;2022-12-07T15:20:11;4.97;;;4.67;;
5612;SDS011;63463;53.586;9.928;2022-12-07T15:22:37;5.10;;;4.80;;
5612;SDS011;63463;53.586;9.928;2022-12-07T15:25:03;7.23;;;4.50;;
5612;SDS011;63463;53.586;9.928;2022-12-07T15:27:30;5.30;;;4.80;;
5612;SDS011;63463;53.586;9.928;2022-12-07T15:29:57;8.73;;;5.10;;
5612;SDS011;63463;53.586;9.928;2022-12-07T15:32:23;6.80;;;5.20;;
5612;SDS011;63463;53.586;9.928;2022-12-07T15:34:49;10.63;;;5.17;;
5612;SDS011;63463;53.586;9.928;2022-12-07T15:37:15;7.13;;;5.00;;
5612;SDS011;63463;53.586;9.928;2022-12-07T15:39:41;6.10;;;5.50;;
5612;SDS011;63463;53.586;9.928;2022-12-07T15:42:07;17.90;;;5.37;;
5612;SDS011;63463;53.586;9.928;2022-12-07T15:44:33;5.40;;;5.10;;
5612;SDS011;63463;53.586;9.928;2022-12-07T15:47:18;6.93;;;5.23;;
5612;SDS011;63463;53.586;9.928;2022-12-07T15:49:44;9.37;;;5.70;;
5612;SDS011;63463;53.586;9.928;2022-12-07T15:52:11;8.23;;;5.43;;
5612;SDS011;63463;53.586;9.928;2022-12-07T15:54:37;9.57;;;7.47;;
5612;SDS011;63463;53.586;9.928;2022-12-07T15:57:04;8.13;;;5.47;;
5612;SDS011;63463;53.586;9.928;2022-12-07T15:59:30;7.30;;;5.10;;
5612;SDS011;63463;53.586;9.928;2022-12-07T16:01:57;10.73;;;5.80;;
5612;SDS011;63463;53.586;9.928;2022-12-07T16:04:23;6.50;;;5.70;;
5612;SDS011;63463;53.586;9.928;2022-12-07T16:06:49;6.20;;;5.70;;
5612;SDS011;63463;53.586;9.928;2022-12-07T16:09:16;5.60;;;5.20;;
5612;SDS011;63463;53.586;9.928;2022-12-07T16:11:42;15.03;;;5.87;;
5612;SDS011;63463;53.586;9.928;2022-12-07T16:14:11;6.07;;;5.47;;
5612;SDS011;63463;53.586;9.928;2022-12-07T16:16:38;12.30;;;6.20;;
5612;SDS011;63463;53.586;9.928;2022-12-07T16:19:05;8.43;;;5.60;;
5612;SDS011;63463;53.586;9.928;2022-12-07T16:21:32;5.80;;;5.30;;
5612;SDS011;63463;53.586;9.928;2022-12-07T16:23:59;6.13;;;5.70;;
5612;SDS011;63463;53.586;9.928;2022-12-07T16:26:25;7.63;;;5.40;;
5612;SDS011;63463;53.586;9.928;2022-12-07T16:28:52;7.10;;;5.33;;
5612;SDS011;63463;53.586;9.928;2022-12-07T16:31:21;9.53;;;6.17;;
5612;SDS011;63463;53.586;9.928;2022-12-07T16:33:48;8.40;;;5.67;;
5612;SDS011;63463;53.586;9.928;2022-12-07T16:36:14;5.87;;;5.40;;
5612;SDS011;63463;53.586;9.928;2022-12-07T16:38:41;22.07;;;5.60;;
5612;SDS011;63463;53.586;9.928;2022-12-07T16:41:08;5.47;;;5.17;;
5612;SDS011;63463;53.586;9.928;2022-12-07T16:43:34;6.30;;;5.80;;
5612;SDS011;63463;53.586;9.928;2022-12-07T16:46:01;5.57;;;5.17;;
5612;SDS011;63463;53.586;9.928;2022-12-07T16:48:27;6.57;;;6.03;;
5612;SDS011;63463;53.586;9.928;2022-12-07T16:50:53;6.30;;;5.80;;
5612;SDS011;63463;53.586;9.928;2022-12-07T16:53:20;10.87;;;6.20;;
5612;SDS011;63463;53.586;9.928;2022-12-07T16:55:46;14.40;;;5.30;;